Time;durP1;ratioP1;P1;durP2;ratioP2;P2;SDS_P1;SDS_P2;PMS_P1;PMS_P2;Temp;Humidity;BMP_temperature;BMP_pressure;BME280_temperature;BME280_humidity;BME280_pressure;Samples;Min_cycle;Max_cycle;Signal;HPM_P1;HPM_P2
2023/01/10 00:00:51;;;;;;;;;;;;;;;;;;5032183;28;7044;-66
2023/01/10 00:03:19;;;;;;;;;;;;;;;;;;5001031;28;9224;-66
2023/01/10 00:05:56;;;;;;;;;;;;;;;;;;4997234;28;7149;-66
2023/01/10 00:08:58;;;;;;;;;;;;;;;;;;4997607;28;6986;-66
2023/01/10 00:14:07;;;;;;;;;;;;;;;;;;5017343;28;6806;-66
2023/01/10 00:16:35;;;;;;;;;;;;;;;;;;5016748;28;7435;-66
2023/01/10 00:19:01;;;;;;;;;;;;;;;;;;5017465;28;7104;-66
2023/01/10 00:24:30;;;;;;;;;;;;;;;;;;5016483;28;6691;-66
2023/01/10 00:26:59;;;;;;;;;;;;;;;;;;5017105;28;6909;-66
2023/01/10 00:29:42;;;;;;;;;;;;;;;;;;5016589;28;7340;-66
2023/01/10 00:32:08;;;;;;;;;;;;;;;;;;5016488;28;7286;-66
2023/01/10 00:34:34;;;;;;;;;;;;;;;;;;5017366;28;7106;-66
2023/01/10 00:45:49;;;;;;;;;;;;;;;;;;5016213;28;6801;-66
2023/01/10 00:48:15;;;;;;;;;;;;;;;;;;5019986;28;7122;-66
2023/01/10 00:56:47;;;;;;;;;;;;;;;;;;5035964;28;6667;-66
2023/01/10 00:59:29;;;;;;;;;;;;;;;;;;5035453;28;7368;-66
2023/01/10 01:04:58;;;;;;;;;;;;;;;;;;5035578;28;6929;-66
2023/01/10 01:07:24;;;;;;;;;;;;;;;;;;5035491;28;7144;-66
2023/01/10 01:13:05;;;;;;;;;;;;;;;;;;5035162;28;6679;-66
2023/01/10 01:15:59;;;;;;;;;;;;;;;;;;5035427;28;7115;-66
2023/01/10 01:18:26;;;;;;;;;;;;;;;;;;5035403;28;7063;-66
2023/01/10 01:21:05;;;;;;;;;;;;;;;;;;5034720;28;7502;-66
2023/01/10 01:23:33;;;;;;;;;;;;;;;;;;5035346;28;7051;-66
2023/01/10 01:26:07;;;;;;;;;;;;;;;;;;5035049;28;7126;-66
2023/01/10 01:37:42;;;;;;;;;;;;;;;;;;5034938;28;6679;-65
2023/01/10 01:43:22;;;;;;;;;;;;;;;;;;5034679;28;6927;-66
2023/01/10 01:45:48;;;;;;;;;;;;;;;;;;5031892;28;7071;-66
2023/01/10 01:48:19;;;;;;;;;;;;;;;;;;5015186;28;7062;-66
2023/01/10 01:51:07;;;;;;;;;;;;;;;;;;5015196;28;7495;-66
2023/01/10 01:54:06;;;;;;;;;;;;;;;;;;5015416;28;6969;-66
2023/01/10 01:56:42;;;;;;;;;;;;;;;;;;5015249;28;7462;-66
2023/01/10 01:59:15;;;;;;;;;;;;;;;;;;4998525;28;7419;-66
2023/01/10 02:01:49;;;;;;;;;;;;;;;;;;5014547;28;7494;-66
2023/01/10 02:04:22;;;;;;;;;;;;;;;;;;5014989;28;7222;-66
2023/01/10 02:06:51;;;;;;;;;;;;;;;;;;5077874;23;7595;-67
2023/01/10 02:09:21;;;;;;;;;;;;;;;;;;5054715;28;7267;-66
2023/01/10 02:11:46;;;;;;;;;;;;;;;;;;5054496;28;6927;-66
2023/01/10 02:14:14;;;;;;;;;;;;;;;;;;5054258;28;7560;-66
2023/01/10 02:26:10;;;;;;;;;;;;;;;;;;5054454;28;6970;-67
2023/01/10 02:28:54;;;;;;;;;;;;;;;;;;5054544;28;7194;-66
2023/01/10 02:34:33;;;;;;;;;;;;;;;;;;5058301;28;6698;-66
2023/01/10 02:37:11;;;;;;;;;;;;;;;;;;5058480;28;7014;-66
2023/01/10 02:39:51;;;;;;;;;;;;;;;;;;5050690;28;8611;-66
2023/01/10 02:42:24;;;;;;;;;;;;;;;;;;5058489;28;7201;-66
2023/01/10 02:47:54;;;;;;;;;;;;;;;;;;5057769;28;6905;-66
2023/01/10 02:50:26;;;;;;;;;;;;;;;;;;5058561;28;7628;-66
2023/01/10 02:52:52;;;;;;;;;;;;;;;;;;5057995;28;7133;-66
2023/01/10 02:55:31;;;;;;;;;;;;;;;;;;5056817;28;7149;-66
2023/01/10 03:09:55;;;;;;;;;;;;;;;;;;5058632;28;6984;-67
2023/01/10 03:12:26;;;;;;;;;;;;;;;;;;5057686;28;7175;-66
2023/01/10 03:17:57;;;;;;;;;;;;;;;;;;5057392;28;6846;-66
2023/01/10 03:23:27;;;;;;;;;;;;;;;;;;5057265;28;6688;-66
2023/01/10 03:28:56;;;;;;;;;;;;;;;;;;5057848;28;7032;-66
2023/01/10 03:31:32;;;;;;;;;;;;;;;;;;5057625;28;7076;-66
2023/01/10 03:37:00;;;;;;;;;;;;;;;;;;5057111;28;6691;-66
2023/01/10 03:46:04;;;;;;;;;;;;;;;;;;5015508;28;7523;-66
2023/01/10 03:48:35;;;;;;;;;;;;;;;;;;5015452;28;7059;-66
2023/01/10 03:53:52;;;;;;;;;;;;;;;;;;5015656;28;7534;-66
2023/01/10 03:56:20;;;;;;;;;;;;;;;;;;5015183;28;7354;-66
2023/01/10 03:58:45;;;;;;;;;;;;;;;;;;5015241;28;7207;-66
2023/01/10 04:04:20;;;;;;;;;;;;;;;;;;5015208;28;6932;-66
2023/01/10 04:06:48;;;;;;;;;;;;;;;;;;5014825;28;7158;-66
2023/01/10 04:09:14;;;;;;;;;;;;;;;;;;5015258;28;7075;-67
2023/01/10 04:15:01;;;;;;;;;;;;;;;;;;5015082;28;6713;-66
2023/01/10 04:17:27;;;;;;;;;;;;;;;;;;5014925;28;6824;-66
2023/01/10 04:19:56;;;;;;;;;;;;;;;;;;5014684;28;7414;-66
2023/01/10 04:22:22;;;;;;;;;;;;;;;;;;5035480;28;7354;-66
2023/01/10 04:24:50;;;;;;;;;;;;;;;;;;5056342;28;7175;-67
2023/01/10 04:27:25;;;;;;;;;;;;;;;;;;5055971;28;7053;-67
2023/01/10 04:29:52;;;;;;;;;;;;;;;;;;5056400;28;7035;-66
2023/01/10 04:32:17;;;;;;;;;;;;;;;;;;5056489;28;7169;-67
2023/01/10 04:34:43;;;;;;;;;;;;;;;;;;5055875;28;6913;-66
2023/01/10 04:37:08;;;;;;;;;;;;;;;;;;5056185;28;7173;-66
2023/01/10 04:39:33;;;;;;;;;;;;;;;;;;5056186;28;7115;-66
2023/01/10 04:45:02;;;;;;;;;;;;;;;;;;5056087;28;6693;-66
2023/01/10 04:47:32;;;;;;;;;;;;;;;;;;5055913;28;7192;-66
2023/01/10 04:49:58;;;;;;;;;;;;;;;;;;5055751;28;7204;-66
2023/01/10 04:52:24;;;;;;;;;;;;;;;;;;5055924;28;7326;-66
2023/01/10 04:54:50;;;;;;;;;;;;;;;;;;5055810;28;7292;-66
2023/01/10 05:06:26;;;;;;;;;;;;;;;;;;5054876;28;6689;-66
2023/01/10 05:08:51;;;;;;;;;;;;;;;;;;5055797;28;7106;-66
2023/01/10 05:11:23;;;;;;;;;;;;;;;;;;5055586;28;7100;-66
2023/01/10 05:13:49;;;;;;;;;;;;;;;;;;5055270;28;8162;-67
2023/01/10 05:16:15;;;;;;;;;;;;;;;;;;5052436;28;7077;-67
2023/01/10 05:18:40;;;;;;;;;;;;;;;;;;5055115;28;7096;-69
2023/01/10 05:21:09;;;;;;;;;;;;;;;;;;5054162;28;7102;-66
2023/01/10 05:23:35;;;;;;;;;;;;;;;;;;5055192;28;7200;-66
2023/01/10 05:26:06;;;;;;;;;;;;;;;;;;5055262;28;7112;-66
2023/01/10 05:28:31;;;;;;;;;;;;;;;;;;5077925;23;7239;-67
2023/01/10 05:30:57;;;;;;;;;;;;;;;;;;5053703;28;7005;-69
2023/01/10 05:36:36;;;;;;;;;;;;;;;;;;5054698;28;6719;-69
2023/01/10 05:39:02;;;;;;;;;;;;;;;;;;5055329;28;7395;-69
2023/01/10 05:41:27;;;;;;;;;;;;;;;;;;5054990;28;7232;-69
2023/01/10 05:44:26;;;;;;;;;;;;;;;;;;5037298;28;8501;-70
2023/01/10 05:46:52;;;;;;;;;;;;;;;;;;5054632;28;7302;-70
2023/01/10 05:53:02;;;;;;;;;;;;;;;;;;5054523;28;6914;-70
2023/01/10 05:55:27;;;;;;;;;;;;;;;;;;5055169;28;6820;-70
2023/01/10 06:07:08;;;;;;;;;;;;;;;;;;5054389;28;6906;-70
2023/01/10 06:12:39;;;;;;;;;;;;;;;;;;5054309;28;6690;-69
2023/01/10 06:18:08;;;;;;;;;;;;;;;;;;5054346;28;6687;-69
2023/01/10 06:20:34;;;;;;;;;;;;;;;;;;5036835;28;8495;-69
2023/01/10 06:23:03;;;;;;;;;;;;;;;;;;5054089;28;7210;-69
2023/01/10 06:25:36;;;;;;;;;;;;;;;;;;5055345;28;7061;-69
2023/01/10 06:28:02;;;;;;;;;;;;;;;;;;5054496;28;6927;-69
2023/01/10 06:30:28;;;;;;;;;;;;;;;;;;5054455;28;7318;-69
2023/01/10 06:33:04;;;;;;;;;;;;;;;;;;5054324;28;7463;-69
2023/01/10 06:35:30;;;;;;;;;;;;;;;;;;5054339;28;7143;-69
2023/01/10 06:37:56;;;;;;;;;;;;;;;;;;5054318;28;7137;-69
2023/01/10 06:43:24;;;;;;;;;;;;;;;;;;5053970;28;6686;-69
2023/01/10 06:45:55;;;;;;;;;;;;;;;;;;5054296;28;7219;-69
2023/01/10 06:51:23;;;;;;;;;;;;;;;;;;5054411;28;6913;-69
2023/01/10 06:53:49;;;;;;;;;;;;;;;;;;5054256;28;7127;-69
2023/01/10 06:56:14;;;;;;;;;;;;;;;;;;5054452;28;6951;-69
2023/01/10 06:58:51;;;;;;;;;;;;;;;;;;5054258;28;7111;-69
2023/01/10 07:01:18;;;;;;;;;;;;;;;;;;5054110;28;7127;-69
2023/01/10 07:03:43;;;;;;;;;;;;;;;;;;5054210;28;7051;-69
2023/01/10 07:06:40;;;;;;;;;;;;;;;;;;5054076;28;7473;-69
2023/01/10 07:09:06;;;;;;;;;;;;;;;;;;5054329;28;7407;-69
2023/01/10 07:11:33;;;;;;;;;;;;;;;;;;5054296;28;7192;-69
2023/01/10 07:14:12;;;;;;;;;;;;;;;;;;5054095;28;7013;-69
2023/01/10 07:16:38;;;;;;;;;;;;;;;;;;5053784;28;7413;-69
2023/01/10 07:19:03;;;;;;;;;;;;;;;;;;5054726;28;7263;-69
2023/01/10 07:21:29;;;;;;;;;;;;;;;;;;5057178;28;7201;-70
2023/01/10 07:23:54;;;;;;;;;;;;;;;;;;5057523;28;7089;-69
2023/01/10 07:29:44;;;;;;;;;;;;;;;;;;5052154;28;7071;-69
2023/01/10 07:32:09;;;;;;;;;;;;;;;;;;5037269;28;7098;-69
2023/01/10 07:34:35;;;;;;;;;;;;;;;;;;5037316;28;7167;-69
2023/01/10 07:37:33;;;;;;;;;;;;;;;;;;5037174;28;7230;-69
2023/01/10 07:39:59;;;;;;;;;;;;;;;;;;5036863;28;7441;-69
2023/01/10 07:42:44;;;;;;;;;;;;;;;;;;5037135;28;7351;-69
2023/01/10 07:45:10;;;;;;;;;;;;;;;;;;5036942;28;7231;-69
2023/01/10 07:48:02;;;;;;;;;;;;;;;;;;5037649;28;7039;-70
2023/01/10 07:50:29;;;;;;;;;;;;;;;;;;5037662;28;7207;-69
2023/01/10 07:52:55;;;;;;;;;;;;;;;;;;5036673;28;7260;-69
2023/01/10 07:58:24;;;;;;;;;;;;;;;;;;5036814;28;6687;-69
2023/01/10 08:09:58;;;;;;;;;;;;;;;;;;5036609;28;7021;-69
2023/01/10 08:12:24;;;;;;;;;;;;;;;;;;5036888;28;7225;-69
2023/01/10 08:21:08;;;;;;;;;;;;;;;;;;5036376;28;6981;-69
2023/01/10 08:26:31;;;;;;;;;;;;;;;;;;5037387;28;7218;-69
2023/01/10 08:28:56;;;;;;;;;;;;;;;;;;5038861;28;7206;-69
2023/01/10 08:31:22;;;;;;;;;;;;;;;;;;5056449;28;7072;-69
2023/01/10 08:33:47;;;;;;;;;;;;;;;;;;5056279;28;7469;-69
2023/01/10 08:36:45;;;;;;;;;;;;;;;;;;5056169;28;6971;-70
2023/01/10 08:39:11;;;;;;;;;;;;;;;;;;5056126;28;7139;-70
2023/01/10 08:41:38;;;;;;;;;;;;;;;;;;5055852;28;7085;-70
2023/01/10 08:44:14;;;;;;;;;;;;;;;;;;5055979;28;7109;-70
2023/01/10 08:46:41;;;;;;;;;;;;;;;;;;5036175;28;7070;-70
2023/01/10 08:49:41;;;;;;;;;;;;;;;;;;5035987;28;7448;-70
2023/01/10 08:52:07;;;;;;;;;;;;;;;;;;5035776;28;7197;-70
2023/01/10 08:54:32;;;;;;;;;;;;;;;;;;5036035;28;7162;-70
2023/01/10 08:56:58;;;;;;;;;;;;;;;;;;5035806;28;7395;-70
2023/01/10 08:59:23;;;;;;;;;;;;;;;;;;5035773;28;7067;-70
2023/01/10 09:01:49;;;;;;;;;;;;;;;;;;5035714;28;7102;-69
2023/01/10 09:07:17;;;;;;;;;;;;;;;;;;5035376;28;6997;-69
2023/01/10 09:09:43;;;;;;;;;;;;;;;;;;5035559;28;7175;-69
2023/01/10 09:14:53;;;;;;;;;;;;;;;;;;5036312;28;7478;-69
2023/01/10 09:17:18;;;;;;;;;;;;;;;;;;5035711;28;7107;-69
2023/01/10 09:19:58;;;;;;;;;;;;;;;;;;5035687;28;7187;-69
2023/01/10 09:22:23;;;;;;;;;;;;;;;;;;5035392;28;7171;-69
2023/01/10 09:24:49;;;;;;;;;;;;;;;;;;5036034;28;7403;-69
2023/01/10 09:27:46;;;;;;;;;;;;;;;;;;5035337;28;6963;-69
2023/01/10 09:33:14;;;;;;;;;;;;;;;;;;5034948;28;6691;-69
2023/01/10 09:36:08;;;;;;;;;;;;;;;;;;5035176;28;7055;-69
2023/01/10 09:41:51;;;;;;;;;;;;;;;;;;5034443;28;7422;-70
2023/01/10 09:44:24;;;;;;;;;;;;;;;;;;5035111;28;7173;-70
2023/01/10 09:47:13;;;;;;;;;;;;;;;;;;5036141;28;7079;-70
2023/01/10 09:49:48;;;;;;;;;;;;;;;;;;5040646;28;7415;-70
2023/01/10 09:52:44;;;;;;;;;;;;;;;;;;5053783;28;7341;-69
2023/01/10 10:04:23;;;;;;;;;;;;;;;;;;5054472;28;7010;-70
2023/01/10 10:06:50;;;;;;;;;;;;;;;;;;5054646;28;7211;-70
2023/01/10 10:09:19;;;;;;;;;;;;;;;;;;5054469;28;7148;-70
2023/01/10 10:14:50;;;;;;;;;;;;;;;;;;5054056;28;7389;-70
2023/01/10 10:20:49;;;;;;;;;;;;;;;;;;5054059;28;7024;-70
2023/01/10 10:29:35;;;;;;;;;;;;;;;;;;5054227;28;6677;-70
2023/01/10 10:38:16;;;;;;;;;;;;;;;;;;5034422;28;6959;-71
2023/01/10 10:41:17;;;;;;;;;;;;;;;;;;5034142;28;7207;-71
2023/01/10 10:43:45;;;;;;;;;;;;;;;;;;5034803;28;7448;-71
2023/01/10 10:46:32;;;;;;;;;;;;;;;;;;5034353;28;7072;-71
2023/01/10 10:49:01;;;;;;;;;;;;;;;;;;5034415;28;7331;-71
2023/01/10 10:51:35;;;;;;;;;;;;;;;;;;5034307;28;7496;-71
2023/01/10 10:54:31;;;;;;;;;;;;;;;;;;5037604;28;7231;-71
2023/01/10 10:56:57;;;;;;;;;;;;;;;;;;5038455;28;7202;-71
2023/01/10 11:08:43;;;;;;;;;;;;;;;;;;5037663;28;6933;-71
2023/01/10 11:11:36;;;;;;;;;;;;;;;;;;5037929;28;7426;-71
2023/01/10 11:14:06;;;;;;;;;;;;;;;;;;5037885;28;7206;-71
2023/01/10 11:16:38;;;;;;;;;;;;;;;;;;5037933;28;7490;-71
2023/01/10 11:22:07;;;;;;;;;;;;;;;;;;5037382;28;6682;-73
2023/01/10 11:27:48;;;;;;;;;;;;;;;;;;5037479;28;6916;-71
2023/01/10 11:30:31;;;;;;;;;;;;;;;;;;5038212;28;7129;-71
2023/01/10 11:32:59;;;;;;;;;;;;;;;;;;5037466;28;7511;-70
2023/01/10 11:35:28;;;;;;;;;;;;;;;;;;5037467;28;7207;-70
2023/01/10 11:47:09;;;;;;;;;;;;;;;;;;5056998;28;6939;-70
2023/01/10 11:50:10;;;;;;;;;;;;;;;;;;5057885;28;7145;-70
2023/01/10 11:52:41;;;;;;;;;;;;;;;;;;5057059;28;7095;-71
2023/01/10 11:55:07;;;;;;;;;;;;;;;;;;5055657;28;8480;-71
2023/01/10 11:57:33;;;;;;;;;;;;;;;;;;5057394;28;7047;-71
2023/01/10 12:00:25;;;;;;;;;;;;;;;;;;5057768;28;6979;-71
2023/01/10 12:02:51;;;;;;;;;;;;;;;;;;5056746;28;7163;-71
2023/01/10 12:05:19;;;;;;;;;;;;;;;;;;5056582;28;7428;-71
2023/01/10 12:07:56;;;;;;;;;;;;;;;;;;5056335;28;8145;-71
2023/01/10 12:13:26;;;;;;;;;;;;;;;;;;5056551;28;6907;-71
2023/01/10 12:16:10;;;;;;;;;;;;;;;;;;5056609;28;7217;-71
2023/01/10 12:21:40;;;;;;;;;;;;;;;;;;5056261;28;6684;-71
2023/01/10 12:24:41;;;;;;;;;;;;;;;;;;5056744;28;7389;-71
2023/01/10 12:27:10;;;;;;;;;;;;;;;;;;5057014;28;7393;-71
2023/01/10 12:29:43;;;;;;;;;;;;;;;;;;5055407;28;7195;-71
2023/01/10 12:32:26;;;;;;;;;;;;;;;;;;5056213;28;7188;-71
2023/01/10 12:35:03;;;;;;;;;;;;;;;;;;5056223;28;7492;-71
2023/01/10 12:37:35;;;;;;;;;;;;;;;;;;5056016;28;7409;-71
2023/01/10 12:40:31;;;;;;;;;;;;;;;;;;5056740;28;7145;-71
2023/01/10 12:46:36;;;;;;;;;;;;;;;;;;5014375;28;7184;-71
2023/01/10 12:49:08;;;;;;;;;;;;;;;;;;5015188;28;7178;-71
2023/01/10 12:51:34;;;;;;;;;;;;;;;;;;5014265;28;7133;-71
2023/01/10 12:54:09;;;;;;;;;;;;;;;;;;5014240;28;7065;-71
2023/01/10 12:56:35;;;;;;;;;;;;;;;;;;5014126;28;7483;-71
2023/01/10 12:59:06;;;;;;;;;;;;;;;;;;5014977;28;7417;-71
2023/01/10 13:01:35;;;;;;;;;;;;;;;;;;5013892;28;7015;-71
2023/01/10 13:07:04;;;;;;;;;;;;;;;;;;5014051;28;6687;-71
2023/01/10 13:09:38;;;;;;;;;;;;;;;;;;5013849;28;6972;-71
2023/01/10 13:15:05;;;;;;;;;;;;;;;;;;5013503;28;6929;-72
2023/01/10 13:17:31;;;;;;;;;;;;;;;;;;5042541;28;7165;-71
2023/01/10 13:20:26;;;;;;;;;;;;;;;;;;5055427;28;7401;-71
2023/01/10 13:23:28;;;;;;;;;;;;;;;;;;5050754;28;7927;-71
2023/01/10 13:25:59;;;;;;;;;;;;;;;;;;5055534;28;7283;-71
2023/01/10 13:28:27;;;;;;;;;;;;;;;;;;5055303;28;7406;-71
2023/01/10 13:30:55;;;;;;;;;;;;;;;;;;5055041;28;7781;-71
2023/01/10 13:36:26;;;;;;;;;;;;;;;;;;5054893;28;6695;-71
2023/01/10 13:38:55;;;;;;;;;;;;;;;;;;5055052;28;7159;-71
2023/01/10 13:44:07;;;;;;;;;;;;;;;;;;5055359;28;6811;-71
2023/01/10 13:46:35;;;;;;;;;;;;;;;;;;5054726;28;6990;-71
2023/01/10 13:49:02;;;;;;;;;;;;;;;;;;5054960;28;7130;-71
2023/01/10 13:51:30;;;;;;;;;;;;;;;;;;5054794;28;7052;-71
2023/01/10 13:53:56;;;;;;;;;;;;;;;;;;5054469;28;6971;-71
2023/01/10 13:56:45;;;;;;;;;;;;;;;;;;5055200;28;7143;-71
2023/01/10 14:05:22;;;;;;;;;;;;;;;;;;5055061;28;6807;-71
2023/01/10 14:07:49;;;;;;;;;;;;;;;;;;5054439;28;7042;-71
2023/01/10 14:13:21;;;;;;;;;;;;;;;;;;5054246;28;6927;-71
2023/01/10 14:15:59;;;;;;;;;;;;;;;;;;5054772;28;7195;-71
2023/01/10 14:18:32;;;;;;;;;;;;;;;;;;5054489;28;7143;-71
2023/01/10 14:27:17;;;;;;;;;;;;;;;;;;5055884;28;6679;-71
2023/01/10 14:29:48;;;;;;;;;;;;;;;;;;5058529;28;7201;-72
2023/01/10 14:32:37;;;;;;;;;;;;;;;;;;5021675;28;6927;-72
2023/01/10 14:35:05;;;;;;;;;;;;;;;;;;5037856;28;7377;-72
2023/01/10 14:37:36;;;;;;;;;;;;;;;;;;5038410;28;7156;-72
2023/01/10 14:43:15;;;;;;;;;;;;;;;;;;5037438;28;7015;-72
2023/01/10 14:46:00;;;;;;;;;;;;;;;;;;5038305;28;7047;-72
2023/01/10 14:48:28;;;;;;;;;;;;;;;;;;5039099;28;7414;-71
2023/01/10 14:51:12;;;;;;;;;;;;;;;;;;5038335;28;7104;-71
2023/01/10 14:53:37;;;;;;;;;;;;;;;;;;5036809;28;8123;-71
2023/01/10 14:56:28;;;;;;;;;;;;;;;;;;5038223;28;7116;-71
2023/01/10 14:58:54;;;;;;;;;;;;;;;;;;5035616;28;7171;-72
2023/01/10 15:01:35;;;;;;;;;;;;;;;;;;5037972;28;7114;-72
2023/01/10 15:04:01;;;;;;;;;;;;;;;;;;5037879;28;7183;-72
2023/01/10 15:09:30;;;;;;;;;;;;;;;;;;5037639;28;6939;-72
2023/01/10 15:15:23;;;;;;;;;;;;;;;;;;5017808;28;6756;-72
2023/01/10 15:17:50;;;;;;;;;;;;;;;;;;5025885;28;7482;-72
2023/01/10 15:20:19;;;;;;;;;;;;;;;;;;5037793;28;7067;-71
2023/01/10 15:22:56;;;;;;;;;;;;;;;;;;5037616;28;7195;-71
2023/01/10 15:28:27;;;;;;;;;;;;;;;;;;5037397;28;7035;-71
2023/01/10 15:30:53;;;;;;;;;;;;;;;;;;5041877;28;7036;-71
2023/01/10 15:33:30;;;;;;;;;;;;;;;;;;5037396;28;7502;-71
2023/01/10 15:36:02;;;;;;;;;;;;;;;;;;5037728;28;7080;-71
2023/01/10 15:38:29;;;;;;;;;;;;;;;;;;5036619;28;7166;-71
2023/01/10 15:43:49;;;;;;;;;;;;;;;;;;5037137;28;6803;-71
2023/01/10 15:46:26;;;;;;;;;;;;;;;;;;5037290;28;7397;-71
2023/01/10 15:48:54;;;;;;;;;;;;;;;;;;5037332;28;7288;-71
2023/01/10 15:51:19;;;;;;;;;;;;;;;;;;5037077;28;7321;-71
2023/01/10 15:56:50;;;;;;;;;;;;;;;;;;5036982;28;6681;-72
2023/01/10 16:08:56;;;;;;;;;;;;;;;;;;5036730;28;6933;-71
2023/01/10 16:14:25;;;;;;;;;;;;;;;;;;5037163;28;7032;-71
2023/01/10 16:17:19;;;;;;;;;;;;;;;;;;5037102;28;6960;-71
2023/01/10 16:19:44;;;;;;;;;;;;;;;;;;5036604;28;7102;-71
2023/01/10 16:22:17;;;;;;;;;;;;;;;;;;5018808;28;8402;-71
2023/01/10 16:27:45;;;;;;;;;;;;;;;;;;5036290;28;6679;-71
2023/01/10 16:33:26;;;;;;;;;;;;;;;;;;5037596;28;6685;-71
2023/01/10 16:35:54;;;;;;;;;;;;;;;;;;5036390;28;7414;-72
2023/01/10 16:38:43;;;;;;;;;;;;;;;;;;5036225;28;7366;-72
2023/01/10 16:50:14;;;;;;;;;;;;;;;;;;5034967;28;6977;-71
2023/01/10 16:52:40;;;;;;;;;;;;;;;;;;5036062;28;7216;-71
2023/01/10 16:55:39;;;;;;;;;;;;;;;;;;5035948;28;7159;-71
2023/01/10 16:58:06;;;;;;;;;;;;;;;;;;5035926;28;7229;-73
2023/01/10 17:00:45;;;;;;;;;;;;;;;;;;5036449;28;7194;-71
2023/01/10 17:03:14;;;;;;;;;;;;;;;;;;5036019;28;7361;-71
2023/01/10 17:05:40;;;;;;;;;;;;;;;;;;5035844;28;7189;-71
2023/01/10 17:08:09;;;;;;;;;;;;;;;;;;5024769;28;7493;-71
2023/01/10 17:13:44;;;;;;;;;;;;;;;;;;5035403;28;7040;-72
2023/01/10 17:16:10;;;;;;;;;;;;;;;;;;5035759;28;7128;-72
2023/01/10 17:18:37;;;;;;;;;;;;;;;;;;5035526;28;6947;-72
2023/01/10 17:21:16;;;;;;;;;;;;;;;;;;5035534;28;7175;-72
2023/01/10 17:23:43;;;;;;;;;;;;;;;;;;5035529;28;7332;-72
2023/01/10 17:26:11;;;;;;;;;;;;;;;;;;5035251;28;7159;-71
2023/01/10 17:28:37;;;;;;;;;;;;;;;;;;5035214;28;7128;-71
2023/01/10 17:31:28;;;;;;;;;;;;;;;;;;5034975;28;6957;-71
2023/01/10 17:33:53;;;;;;;;;;;;;;;;;;5037427;28;7234;-72
2023/01/10 17:36:21;;;;;;;;;;;;;;;;;;5041059;28;7505;-71
2023/01/10 17:38:47;;;;;;;;;;;;;;;;;;5035074;28;8391;-71
2023/01/10 17:41:12;;;;;;;;;;;;;;;;;;5035178;28;7065;-71
2023/01/10 17:50:08;;;;;;;;;;;;;;;;;;5034808;28;6671;-71
2023/01/10 17:52:33;;;;;;;;;;;;;;;;;;5034621;28;7165;-71
2023/01/10 17:55:02;;;;;;;;;;;;;;;;;;5034903;28;7187;-71
2023/01/10 17:57:27;;;;;;;;;;;;;;;;;;5046925;28;7252;-71
2023/01/10 17:59:53;;;;;;;;;;;;;;;;;;5054899;28;7263;-71
2023/01/10 18:02:18;;;;;;;;;;;;;;;;;;5054694;28;7162;-71
2023/01/10 18:04:44;;;;;;;;;;;;;;;;;;5054817;28;7430;-71
2023/01/10 18:07:17;;;;;;;;;;;;;;;;;;5053467;28;7107;-71
2023/01/10 18:09:42;;;;;;;;;;;;;;;;;;5042494;28;7284;-71
2023/01/10 18:12:08;;;;;;;;;;;;;;;;;;5034809;28;7165;-71
2023/01/10 18:15:01;;;;;;;;;;;;;;;;;;5034829;28;6987;-71
2023/01/10 18:17:27;;;;;;;;;;;;;;;;;;5045336;28;7192;-71
2023/01/10 18:19:52;;;;;;;;;;;;;;;;;;5053665;28;7501;-71
2023/01/10 18:25:11;;;;;;;;;;;;;;;;;;5054888;28;7537;-71
2023/01/10 18:27:58;;;;;;;;;;;;;;;;;;5054526;28;7235;-71
2023/01/10 18:30:24;;;;;;;;;;;;;;;;;;5055024;28;7236;-71
2023/01/10 18:32:51;;;;;;;;;;;;;;;;;;5054286;28;7104;-71
2023/01/10 18:35:18;;;;;;;;;;;;;;;;;;5054210;28;7155;-72
2023/01/10 18:37:43;;;;;;;;;;;;;;;;;;5054453;28;7153;-72
2023/01/10 18:40:10;;;;;;;;;;;;;;;;;;5054044;28;7007;-72
2023/01/10 18:42:36;;;;;;;;;;;;;;;;;;5054069;28;7350;-72
2023/01/10 18:45:02;;;;;;;;;;;;;;;;;;5054843;28;7430;-71
2023/01/10 18:47:28;;;;;;;;;;;;;;;;;;5054655;28;7163;-71
2023/01/10 18:50:15;;;;;;;;;;;;;;;;;;5054239;28;7363;-71
2023/01/10 18:52:40;;;;;;;;;;;;;;;;;;5054142;28;7193;-71
2023/01/10 18:55:06;;;;;;;;;;;;;;;;;;5054503;28;7317;-71
2023/01/10 19:00:35;;;;;;;;;;;;;;;;;;5054145;28;6688;-71
2023/01/10 19:06:04;;;;;;;;;;;;;;;;;;5053912;28;6766;-71
2023/01/10 19:08:39;;;;;;;;;;;;;;;;;;5054139;28;7061;-71
2023/01/10 19:11:06;;;;;;;;;;;;;;;;;;5054169;28;7209;-71
2023/01/10 19:16:36;;;;;;;;;;;;;;;;;;5057690;28;6702;-71
2023/01/10 19:19:05;;;;;;;;;;;;;;;;;;5057866;28;7109;-71
2023/01/10 19:21:40;;;;;;;;;;;;;;;;;;5057712;28;6994;-71
2023/01/10 19:24:07;;;;;;;;;;;;;;;;;;5057905;28;6955;-71
2023/01/10 19:26:33;;;;;;;;;;;;;;;;;;5057626;28;7165;-71
2023/01/10 19:32:02;;;;;;;;;;;;;;;;;;5057125;28;7017;-71
2023/01/10 19:34:29;;;;;;;;;;;;;;;;;;5057363;28;6922;-71
2023/01/10 19:36:54;;;;;;;;;;;;;;;;;;5057432;28;7121;-71
2023/01/10 19:39:20;;;;;;;;;;;;;;;;;;5057344;28;7125;-71
2023/01/10 19:41:54;;;;;;;;;;;;;;;;;;5057061;28;7254;-71
2023/01/10 19:44:20;;;;;;;;;;;;;;;;;;5057249;28;7653;-71
2023/01/10 19:47:11;;;;;;;;;;;;;;;;;;5057261;28;6947;-71
2023/01/10 19:49:37;;;;;;;;;;;;;;;;;;5056833;28;6966;-71
2023/01/10 19:57:55;;;;;;;;;;;;;;;;;;5057622;28;7099;-71
2023/01/10 20:00:38;;;;;;;;;;;;;;;;;;5056932;28;7541;-71
2023/01/10 20:03:06;;;;;;;;;;;;;;;;;;5038987;28;8461;-72
2023/01/10 20:05:42;;;;;;;;;;;;;;;;;;5056724;28;7419;-71
2023/01/10 20:08:08;;;;;;;;;;;;;;;;;;5057179;28;7138;-71
2023/01/10 20:10:33;;;;;;;;;;;;;;;;;;5056717;28;6884;-71
2023/01/10 20:16:05;;;;;;;;;;;;;;;;;;5056546;28;6687;-71
2023/01/10 20:27:40;;;;;;;;;;;;;;;;;;5056226;28;6667;-71
2023/01/10 20:30:07;;;;;;;;;;;;;;;;;;5056447;28;7180;-71
2023/01/10 20:32:33;;;;;;;;;;;;;;;;;;5056432;28;7093;-71
2023/01/10 20:35:12;;;;;;;;;;;;;;;;;;5056379;28;7203;-71
2023/01/10 20:37:38;;;;;;;;;;;;;;;;;;5056209;28;7406;-71
2023/01/10 20:40:05;;;;;;;;;;;;;;;;;;5057474;28;7106;-71
2023/01/10 20:42:31;;;;;;;;;;;;;;;;;;5056230;28;6982;-71
2023/01/10 20:44:57;;;;;;;;;;;;;;;;;;5056125;28;7436;-71
2023/01/10 20:47:22;;;;;;;;;;;;;;;;;;5056395;28;7213;-71
2023/01/10 20:49:48;;;;;;;;;;;;;;;;;;5055865;28;7058;-71
2023/01/10 20:52:37;;;;;;;;;;;;;;;;;;5055694;28;6982;-71
2023/01/10 20:55:03;;;;;;;;;;;;;;;;;;5055956;28;6926;-71
2023/01/10 20:57:36;;;;;;;;;;;;;;;;;;5055940;28;7460;-71
2023/01/10 21:00:02;;;;;;;;;;;;;;;;;;5055839;28;7134;-71
2023/01/10 21:02:38;;;;;;;;;;;;;;;;;;5055359;28;7150;-71
2023/01/10 21:05:03;;;;;;;;;;;;;;;;;;5054051;28;7114;-71
2023/01/10 21:07:29;;;;;;;;;;;;;;;;;;5055009;28;7066;-72
2023/01/10 21:10:01;;;;;;;;;;;;;;;;;;5055030;28;7157;-71
2023/01/10 21:12:27;;;;;;;;;;;;;;;;;;5055334;28;7159;-71
2023/01/10 21:14:55;;;;;;;;;;;;;;;;;;5056157;28;7304;-71
2023/01/10 21:17:21;;;;;;;;;;;;;;;;;;5055156;28;7248;-72
2023/01/10 21:19:46;;;;;;;;;;;;;;;;;;5054602;28;7021;-72
2023/01/10 21:22:17;;;;;;;;;;;;;;;;;;5054836;28;7029;-72
2023/01/10 21:24:43;;;;;;;;;;;;;;;;;;5055347;28;7264;-72
2023/01/10 21:27:08;;;;;;;;;;;;;;;;;;5055235;28;7027;-71
2023/01/10 21:32:24;;;;;;;;;;;;;;;;;;5050670;28;8764;-72
2023/01/10 21:34:50;;;;;;;;;;;;;;;;;;5034969;28;7203;-71
2023/01/10 21:37:15;;;;;;;;;;;;;;;;;;5034482;28;7134;-72
2023/01/10 21:39:41;;;;;;;;;;;;;;;;;;5034847;28;7092;-72
2023/01/10 21:45:05;;;;;;;;;;;;;;;;;;5035237;28;6927;-72
2023/01/10 21:47:33;;;;;;;;;;;;;;;;;;5034654;28;7429;-72
2023/01/10 21:49:59;;;;;;;;;;;;;;;;;;5034635;28;7157;-72
2023/01/10 21:53:01;;;;;;;;;;;;;;;;;;5034628;28;7205;-71
2023/01/10 21:55:27;;;;;;;;;;;;;;;;;;5031399;28;7445;-71
2023/01/10 21:58:18;;;;;;;;;;;;;;;;;;5032363;28;7512;-72
2023/01/10 22:00:43;;;;;;;;;;;;;;;;;;5034470;28;7089;-71
2023/01/10 22:06:12;;;;;;;;;;;;;;;;;;5030215;28;7036;-71
2023/01/10 22:08:37;;;;;;;;;;;;;;;;;;5018003;28;7147;-71
2023/01/10 22:11:03;;;;;;;;;;;;;;;;;;5020887;28;7162;-71
2023/01/10 22:13:28;;;;;;;;;;;;;;;;;;5034954;28;7248;-72
2023/01/10 22:15:58;;;;;;;;;;;;;;;;;;5034620;28;7131;-72
2023/01/10 22:18:38;;;;;;;;;;;;;;;;;;5034677;28;7236;-71
2023/01/10 22:21:03;;;;;;;;;;;;;;;;;;5034695;28;6962;-71
2023/01/10 22:32:53;;;;;;;;;;;;;;;;;;5040069;28;6720;-71
2023/01/10 22:35:19;;;;;;;;;;;;;;;;;;5054514;28;7201;-72
2023/01/10 22:37:45;;;;;;;;;;;;;;;;;;5054985;28;7065;-71
2023/01/10 22:43:14;;;;;;;;;;;;;;;;;;5054090;28;6930;-71
2023/01/10 22:46:09;;;;;;;;;;;;;;;;;;5054092;28;7191;-71
2023/01/10 22:48:35;;;;;;;;;;;;;;;;;;5056438;28;7287;-71
2023/01/10 22:51:01;;;;;;;;;;;;;;;;;;5058955;28;6931;-71
2023/01/10 22:53:42;;;;;;;;;;;;;;;;;;5057907;28;7262;-71
2023/01/10 22:56:10;;;;;;;;;;;;;;;;;;5058037;28;6923;-71
2023/01/10 22:58:36;;;;;;;;;;;;;;;;;;5058074;28;7561;-71
2023/01/10 23:01:05;;;;;;;;;;;;;;;;;;5058171;28;7344;-71
2023/01/10 23:03:31;;;;;;;;;;;;;;;;;;5057828;28;7170;-71
2023/01/10 23:06:16;;;;;;;;;;;;;;;;;;5058088;28;7070;-71
2023/01/10 23:11:45;;;;;;;;;;;;;;;;;;5057705;28;6905;-71
2023/01/10 23:14:16;;;;;;;;;;;;;;;;;;5057849;28;7021;-71
2023/01/10 23:16:43;;;;;;;;;;;;;;;;;;5057627;28;7146;-71
2023/01/10 23:19:08;;;;;;;;;;;;;;;;;;5057829;28;6983;-71
2023/01/10 23:21:34;;;;;;;;;;;;;;;;;;5057786;28;7040;-71
2023/01/10 23:23:59;;;;;;;;;;;;;;;;;;5057746;28;7341;-71
2023/01/10 23:29:50;;;;;;;;;;;;;;;;;;5057506;28;6914;-71
2023/01/10 23:32:50;;;;;;;;;;;;;;;;;;5057558;28;7448;-71
2023/01/10 23:35:15;;;;;;;;;;;;;;;;;;5057711;28;6911;-71
2023/01/10 23:37:45;;;;;;;;;;;;;;;;;;5057396;28;7135;-71
2023/01/10 23:40:10;;;;;;;;;;;;;;;;;;5057443;28;7111;-71
2023/01/10 23:42:36;;;;;;;;;;;;;;;;;;5057327;28;7153;-71
2023/01/10 23:48:12;;;;;;;;;;;;;;;;;;5057067;28;6691;-71
2023/01/10 23:50:38;;;;;;;;;;;;;;;;;;5057231;28;7067;-71